Time;durP1;ratioP1;P1;durP2;ratioP2;P2;SDS_P1;SDS_P2;PMS_P1;PMS_P2;Temp;Humidity;BMP_temperature;BMP_pressure;BME280_temperature;BME280_humidity;BME280_pressure;Samples;Min_cycle;Max_cycle;Signal;HPM_P1;HPM_P2
2023/07/13 00:00:16;;;;;;;2.50;1.70;;;20.40;91.70;;;;;;4958643;28;20086;-87
2023/07/13 00:02:48;;;;;;;3.25;1.80;;;20.40;92.00;;;;;;4948481;28;20037;-87
2023/07/13 00:05:14;;;;;;;3.33;1.90;;;20.40;92.30;;;;;;4967466;28;20034;-88
2023/07/13 00:07:40;;;;;;;2.10;1.90;;;20.40;92.50;;;;;;4966132;28;20027;-87
2023/07/13 00:10:08;;;;;;;1.83;1.70;;;20.40;92.50;;;;;;4955916;28;20097;-88
2023/07/13 00:12:36;;;;;;;2.25;1.67;;;20.40;92.50;;;;;;4934982;29;20135;-88
2023/07/13 00:15:06;;;;;;;2.55;1.73;;;20.40;92.60;;;;;;4968700;28;20544;-88
2023/07/13 00:17:32;;;;;;;4.22;1.52;;;20.40;92.50;;;;;;4966032;28;20109;-88
2023/07/13 00:19:58;;;;;;;2.63;1.80;;;20.40;92.50;;;;;;4933561;28;20793;-88
2023/07/13 00:22:27;;;;;;;4.45;2.22;;;20.40;92.40;;;;;;4950834;29;20046;-87
2023/07/13 00:24:56;;;;;;;2.03;1.50;;;20.40;92.10;;;;;;4963589;28;20046;-88
2023/07/13 00:27:23;;;;;;;6.47;1.60;;;20.30;92.10;;;;;;4951772;28;20417;-87
2023/07/13 00:29:48;;;;;;;3.38;1.60;;;20.30;92.20;;;;;;4970782;28;20118;-89
2023/07/13 00:32:14;;;;;;;3.17;1.58;;;20.30;92.20;;;;;;4940590;29;20482;-88
2023/07/13 00:34:40;;;;;;;1.52;1.42;;;20.30;92.20;;;;;;4953272;28;20077;-87
2023/07/13 00:37:07;;;;;;;1.42;1.23;;;20.30;92.20;;;;;;4932858;29;20078;-88
2023/07/13 00:39:34;;;;;;;1.50;1.40;;;20.30;92.20;;;;;;4955699;29;20047;-88
2023/07/13 00:42:01;;;;;;;4.88;1.75;;;20.30;92.20;;;;;;4940554;28;20042;-88
2023/07/13 00:44:27;;;;;;;1.85;1.42;;;20.30;92.20;;;;;;4940171;28;20035;-87
2023/07/13 00:46:55;;;;;;;3.80;1.40;;;20.30;92.10;;;;;;4941981;29;20634;-87
2023/07/13 00:49:25;;;;;;;3.28;1.33;;;20.30;91.90;;;;;;4934401;28;20035;-87
2023/07/13 00:51:55;;;;;;;1.42;1.30;;;20.30;91.70;;;;;;4941032;29;20023;-88
2023/07/13 00:54:26;;;;;;;2.00;1.30;;;20.30;91.50;;;;;;4956544;28;20035;-88
2023/07/13 00:56:55;;;;;;;3.47;1.75;;;20.30;91.40;;;;;;4940675;29;20027;-88
2023/07/13 00:59:22;;;;;;;2.03;1.52;;;20.30;91.50;;;;;;4926207;29;20043;-87
2023/07/13 01:01:48;;;;;;;2.40;1.42;;;20.20;91.70;;;;;;4946139;28;20027;-87
2023/07/13 01:04:14;;;;;;;2.20;1.25;;;20.20;91.90;;;;;;4950661;28;20030;-87
2023/07/13 01:06:43;;;;;;;1.60;1.45;;;20.10;91.70;;;;;;4948013;28;20066;-89
2023/07/13 01:09:10;;;;;;;2.92;1.38;;;20.10;91.90;;;;;;4965463;28;20441;-88
2023/07/13 01:11:36;;;;;;;2.90;1.50;;;20.00;92.30;;;;;;4955419;29;20091;-87
2023/07/13 01:14:03;;;;;;;2.83;1.58;;;20.00;91.90;;;;;;4939163;29;20063;-88
2023/07/13 01:16:31;;;;;;;3.80;1.60;;;19.90;91.90;;;;;;4957807;29;20027;-88
2023/07/13 01:18:58;;;;;;;1.58;1.27;;;19.90;91.90;;;;;;4969760;28;20035;-88
2023/07/13 01:21:26;;;;;;;1.50;1.40;;;19.90;91.80;;;;;;4963220;28;20035;-88
2023/07/13 01:23:52;;;;;;;4.55;1.40;;;19.80;91.80;;;;;;4954540;29;20031;-88
2023/07/13 01:26:17;;;;;;;3.90;1.50;;;19.80;91.90;;;;;;4938682;29;20513;-87
2023/07/13 01:28:43;;;;;;;1.85;1.67;;;19.80;91.80;;;;;;4922647;29;20076;-88
2023/07/13 01:31:10;;;;;;;3.05;1.30;;;19.80;91.70;;;;;;4924359;29;20044;-88
2023/07/13 01:33:39;;;;;;;2.20;1.38;;;19.70;91.50;;;;;;4954097;29;20042;-88
2023/07/13 01:36:06;;;;;;;3.38;1.70;;;19.70;91.40;;;;;;4962047;28;20027;-88
2023/07/13 01:38:33;;;;;;;2.13;1.50;;;19.60;91.10;;;;;;4937838;29;20121;-88
2023/07/13 01:41:00;;;;;;;1.80;1.25;;;19.60;91.10;;;;;;4953844;29;20035;-88
2023/07/13 01:43:26;;;;;;;1.73;1.40;;;19.60;91.10;;;;;;4953744;29;20409;-88
2023/07/13 01:45:52;;;;;;;1.95;1.40;;;19.60;91.10;;;;;;4953488;28;20031;-88
2023/07/13 01:48:18;;;;;;;3.55;1.40;;;19.50;91.40;;;;;;4928414;28;20046;-88
2023/07/13 01:50:44;;;;;;;2.50;1.40;;;19.40;91.70;;;;;;4967290;28;20023;-88
2023/07/13 01:53:10;;;;;;;2.15;1.75;;;19.40;91.70;;;;;;4936930;28;20098;-88
2023/07/13 01:55:36;;;;;;;2.20;1.30;;;19.30;91.90;;;;;;4926240;29;20111;-88
2023/07/13 01:58:03;;;;;;;5.18;1.40;;;19.20;91.90;;;;;;4921432;29;20082;-88
2023/07/13 02:00:29;;;;;;;3.33;1.30;;;19.10;92.10;;;;;;4954540;28;20035;-87
2023/07/13 02:02:55;;;;;;;3.83;1.80;;;19.00;92.30;;;;;;4953845;28;20031;-87
2023/07/13 02:05:21;;;;;;;3.47;1.42;;;19.00;92.40;;;;;;4929547;28;20105;-88
2023/07/13 02:07:47;;;;;;;2.45;1.50;;;18.90;92.60;;;;;;4960598;28;20086;-88
2023/07/13 02:10:13;;;;;;;2.22;1.40;;;18.80;92.50;;;;;;4937205;29;20035;-88
2023/07/13 02:12:42;;;;;;;2.10;1.40;;;18.80;92.70;;;;;;4923555;29;20027;-87
2023/07/13 02:15:09;;;;;;;1.58;1.48;;;18.80;92.70;;;;;;4969672;28;20031;-87
2023/07/13 02:17:35;;;;;;;2.53;1.52;;;18.80;92.60;;;;;;4953046;29;20071;-87
2023/07/13 02:20:03;;;;;;;1.63;1.33;;;18.90;92.70;;;;;;4941032;29;20035;-88
2023/07/13 02:22:28;;;;;;;1.88;1.30;;;18.90;93.00;;;;;;4937226;29;20043;-87
2023/07/13 02:24:56;;;;;;;2.15;1.80;;;18.80;93.40;;;;;;4953086;28;20031;-88
2023/07/13 02:27:22;;;;;;;2.35;1.55;;;18.80;93.50;;;;;;4936943;29;20358;-88
2023/07/13 02:29:51;;;;;;;4.32;1.70;;;18.70;93.60;;;;;;4937058;29;20069;-88
2023/07/13 02:32:17;;;;;;;2.65;1.50;;;18.70;93.60;;;;;;4928172;29;20067;-88
2023/07/13 02:34:44;;;;;;;3.05;1.70;;;18.70;93.60;;;;;;4936448;29;20032;-88
2023/07/13 02:37:09;;;;;;;1.58;1.38;;;18.70;93.80;;;;;;4961580;28;20038;-87
2023/07/13 02:39:35;;;;;;;2.75;1.58;;;18.60;93.70;;;;;;4959478;28;20027;-88
2023/07/13 02:42:03;;;;;;;2.33;1.50;;;18.60;93.50;;;;;;4936417;29;20121;-88
2023/07/13 02:44:29;;;;;;;3.63;1.40;;;18.60;93.50;;;;;;4923796;28;20490;-87
2023/07/13 02:46:55;;;;;;;2.05;1.70;;;18.60;93.60;;;;;;4941429;29;20038;-88
2023/07/13 02:49:22;;;;;;;3.28;2.03;;;18.60;93.70;;;;;;4936220;29;20435;-88
2023/07/13 02:51:48;;;;;;;2.65;1.50;;;18.50;93.90;;;;;;4961990;28;20110;-88
2023/07/13 02:54:14;;;;;;;2.72;1.85;;;18.50;94.10;;;;;;4945331;28;20035;-88
2023/07/13 02:56:40;;;;;;;1.83;1.70;;;18.40;94.20;;;;;;4931793;29;20490;-88
2023/07/13 02:59:07;;;;;;;3.42;1.40;;;18.30;94.10;;;;;;4958478;28;20031;-88
2023/07/13 03:01:35;;;;;;;2.53;1.95;;;18.30;94.20;;;;;;4920984;29;20027;-87
2023/07/13 03:04:02;;;;;;;2.55;1.60;;;18.30;94.60;;;;;;4932482;28;20101;-91
2023/07/13 03:06:31;;;;;;;4.03;1.60;;;18.20;94.70;;;;;;4944698;29;20034;-87
2023/07/13 03:08:57;;;;;;;1.88;1.40;;;18.20;94.90;;;;;;4943810;28;20415;-87
2023/07/13 03:11:23;;;;;;;2.33;1.48;;;18.10;95.00;;;;;;4936211;29;20043;-89
2023/07/13 03:13:59;;;;;;;1.95;1.45;;;18.10;95.10;;;;;;4934612;29;20110;-88
2023/07/13 03:16:27;;;;;;;2.50;1.60;;;18.10;95.10;;;;;;4939618;28;20057;-88
2023/07/13 03:18:53;;;;;;;1.45;1.35;;;18.10;95.10;;;;;;4940828;29;20123;-86
2023/07/13 03:21:19;;;;;;;1.90;1.52;;;18.10;95.10;;;;;;4940214;28;20122;-87
2023/07/13 03:23:46;;;;;;;2.33;1.50;;;18.00;95.10;;;;;;4938446;29;20039;-86
2023/07/13 03:26:15;;;;;;;2.60;1.42;;;18.00;95.20;;;;;;4939842;28;20110;-86
2023/07/13 03:28:43;;;;;;;1.85;1.60;;;18.00;95.30;;;;;;4953585;29;20493;-86
2023/07/13 03:31:18;;;;;;;2.83;1.70;;;17.90;95.50;;;;;;4962731;28;20130;-87
2023/07/13 03:33:45;;;;;;;2.00;1.40;;;17.90;95.60;;;;;;4958565;28;20019;-86
2023/07/13 03:36:20;;;;;;;1.77;1.50;;;17.90;95.70;;;;;;4949958;29;20533;-86
2023/07/13 03:38:55;;;;;;;1.63;1.50;;;17.90;95.70;;;;;;4958639;28;20019;-87
2023/07/13 03:41:24;;;;;;;3.22;1.80;;;17.90;95.80;;;;;;4948507;28;20039;-85
2023/07/13 03:43:52;;;;;;;1.60;1.35;;;17.90;95.80;;;;;;4966677;28;20089;-87
2023/07/13 03:46:20;;;;;;;4.88;1.70;;;17.90;95.80;;;;;;4946611;28;20060;-87
2023/07/13 03:48:47;;;;;;;1.73;1.33;;;17.90;95.80;;;;;;4962782;28;20553;-86
2023/07/13 03:51:14;;;;;;;3.17;1.50;;;17.90;96.00;;;;;;4941655;28;20568;-87
2023/07/13 03:53:43;;;;;;;1.70;1.60;;;17.90;96.10;;;;;;4952546;29;20421;-86
2023/07/13 03:56:10;;;;;;;2.85;1.52;;;17.90;95.90;;;;;;4954703;28;20094;-85
2023/07/13 03:58:38;;;;;;;3.03;1.40;;;17.80;95.90;;;;;;4950898;28;20033;-86
2023/07/13 04:01:12;;;;;;;2.00;1.80;;;17.80;96.00;;;;;;4965700;28;20516;-86
2023/07/13 04:03:39;;;;;;;1.73;1.50;;;17.80;96.20;;;;;;4971499;28;20033;-87
2023/07/13 04:06:11;;;;;;;2.35;1.58;;;17.70;96.20;;;;;;4929892;29;20055;-87
2023/07/13 04:08:37;;;;;;;2.63;1.33;;;17.70;96.20;;;;;;4962389;28;20109;-85
2023/07/13 04:11:04;;;;;;;1.70;1.60;;;17.80;96.30;;;;;;4940006;29;20626;-86
2023/07/13 04:13:30;;;;;;;2.90;1.98;;;17.80;96.20;;;;;;4941223;28;20089;-85
2023/07/13 04:15:56;;;;;;;1.83;1.70;;;17.80;96.30;;;;;;4955768;28;20031;-86
2023/07/13 04:18:22;;;;;;;4.25;1.80;;;17.80;96.40;;;;;;4929620;29;20035;-88
2023/07/13 04:20:49;;;;;;;2.25;1.70;;;17.80;96.50;;;;;;4941846;28;20046;-87
2023/07/13 04:23:16;;;;;;;2.65;1.70;;;17.90;96.60;;;;;;4961817;28;20054;-86
2023/07/13 04:25:52;;;;;;;1.33;1.23;;;17.90;96.60;;;;;;4953868;29;20516;-87
2023/07/13 04:28:19;;;;;;;2.33;1.92;;;17.90;96.60;;;;;;4947901;28;20031;-86
2023/07/13 04:30:45;;;;;;;1.48;1.38;;;17.90;96.60;;;;;;4965808;28;20101;-87
2023/07/13 04:33:11;;;;;;;2.42;1.63;;;18.00;96.60;;;;;;4946544;28;20486;-86
2023/07/13 04:35:37;;;;;;;3.25;1.80;;;18.00;96.70;;;;;;4933780;29;20032;-85
2023/07/13 04:38:03;;;;;;;3.05;1.60;;;18.00;96.80;;;;;;4956906;28;20501;-88
2023/07/13 04:40:29;;;;;;;1.92;1.75;;;18.00;96.80;;;;;;4945040;28;20049;-87
2023/07/13 04:42:56;;;;;;;4.30;2.15;;;18.00;96.90;;;;;;4944382;29;20463;-85
2023/07/13 04:45:24;;;;;;;2.20;2.00;;;18.00;97.10;;;;;;4946722;28;20039;-88
2023/07/13 04:47:50;;;;;;;2.15;1.67;;;17.90;97.10;;;;;;4964036;28;20143;-87
2023/07/13 04:50:19;;;;;;;2.78;1.75;;;17.90;97.30;;;;;;4945395;28;20390;-86
2023/07/13 04:52:46;;;;;;;1.80;1.70;;;17.90;97.40;;;;;;4963341;28;20058;-85
2023/07/13 04:55:11;;;;;;;1.90;1.80;;;17.90;97.80;;;;;;4929137;29;20092;-86
2023/07/13 04:57:47;;;;;;;2.25;1.70;;;17.90;98.20;;;;;;4943102;28;20038;-86
2023/07/13 05:00:15;;;;;;;2.08;1.60;;;17.80;98.30;;;;;;4942795;29;20042;-86
2023/07/13 05:02:45;;;;;;;2.08;1.60;;;17.80;98.20;;;;;;4946627;28;20034;-87
2023/07/13 05:05:11;;;;;;;2.35;1.70;;;17.90;98.30;;;;;;4952829;28;20031;-87
2023/07/13 05:07:37;;;;;;;3.38;1.70;;;17.90;98.10;;;;;;4947677;28;20038;-89
2023/07/13 05:10:03;;;;;;;1.80;1.70;;;17.90;98.00;;;;;;4925144;28;20405;-85
2023/07/13 05:12:30;;;;;;;2.67;1.70;;;18.10;98.40;;;;;;4934645;28;20106;-86
2023/07/13 05:14:56;;;;;;;3.00;1.52;;;18.20;98.20;;;;;;4939201;29;20791;-85
2023/07/13 05:17:22;;;;;;;2.53;1.45;;;18.40;98.00;;;;;;4942002;28;20532;-86
2023/07/13 05:19:47;;;;;;;2.67;1.52;;;18.50;97.50;;;;;;4964523;28;20027;-86
2023/07/13 05:22:13;;;;;;;1.73;1.60;;;18.60;97.00;;;;;;4924699;28;20062;-86
2023/07/13 05:24:39;;;;;;;3.80;1.55;;;18.80;96.80;;;;;;4962281;28;20042;-88
2023/07/13 05:27:05;;;;;;;1.88;1.65;;;18.90;96.60;;;;;;4939753;29;20042;-87
2023/07/13 05:29:31;;;;;;;3.25;1.60;;;18.90;96.10;;;;;;4937952;29;20059;-87
2023/07/13 05:31:57;;;;;;;1.90;1.52;;;19.00;96.10;;;;;;4937282;29;20120;-87
2023/07/13 05:34:23;;;;;;;2.45;1.58;;;19.00;95.90;;;;;;4958776;28;20039;-87
2023/07/13 05:36:49;;;;;;;3.80;1.45;;;19.10;95.90;;;;;;4953130;28;20030;-87
2023/07/13 05:39:15;;;;;;;3.47;1.40;;;19.20;95.70;;;;;;4961469;28;20022;-87
2023/07/13 05:41:41;;;;;;;2.05;1.42;;;19.20;95.40;;;;;;4957725;28;20035;-88
2023/07/13 05:44:07;;;;;;;2.17;1.55;;;19.20;95.60;;;;;;4937442;29;20042;-89
2023/07/13 05:46:34;;;;;;;4.55;1.60;;;19.30;95.40;;;;;;4936676;29;20035;-86
2023/07/13 05:49:00;;;;;;;1.85;1.45;;;19.50;95.40;;;;;;4954581;28;20035;-88
2023/07/13 05:51:26;;;;;;;1.85;1.42;;;19.80;94.60;;;;;;4953368;29;20042;-87
2023/07/13 05:53:52;;;;;;;2.42;1.33;;;20.20;94.80;;;;;;4952986;29;20622;-87
2023/07/13 05:56:17;;;;;;;1.83;1.60;;;20.70;94.50;;;;;;4954284;28;20028;-88
2023/07/13 05:58:43;;;;;;;1.63;1.05;;;21.20;93.70;;;;;;4928627;28;20078;-87
2023/07/13 06:01:12;;;;;;;2.20;1.08;;;21.50;92.60;;;;;;4926402;28;20537;-88
2023/07/13 06:03:56;;;;;;;2.88;1.17;;;21.80;91.70;;;;;;4953223;29;20049;-87
2023/07/13 06:06:22;;;;;;;1.70;1.27;;;22.10;91.60;;;;;;4952172;29;20103;-88
2023/07/13 06:08:48;;;;;;;2.15;1.40;;;22.20;89.70;;;;;;4941429;29;20039;-89
2023/07/13 06:11:21;;;;;;;2.83;1.17;;;22.30;90.10;;;;;;4936859;29;20046;-87
2023/07/13 06:13:46;;;;;;;3.83;1.23;;;22.30;90.30;;;;;;4920331;29;20515;-88
2023/07/13 06:16:13;;;;;;;2.08;1.35;;;22.20;90.00;;;;;;4945711;28;20038;-88
2023/07/13 06:18:40;;;;;;;1.45;1.10;;;22.10;90.00;;;;;;4964253;28;20081;-88
2023/07/13 06:21:11;;;;;;;1.55;1.10;;;22.10;89.00;;;;;;4965549;28;20114;-89
2023/07/13 06:23:37;;;;;;;2.35;1.40;;;22.00;89.40;;;;;;4953773;29;20024;-88
2023/07/13 06:26:05;;;;;;;2.75;1.30;;;21.90;90.00;;;;;;4954470;28;20035;-87
2023/07/13 06:28:31;;;;;;;2.65;1.20;;;21.90;90.10;;;;;;4954395;29;20035;-88
2023/07/13 06:30:58;;;;;;;2.65;1.35;;;22.00;90.70;;;;;;4960801;28;20122;-88
2023/07/13 06:33:25;;;;;;;4.22;1.10;;;22.10;89.00;;;;;;4957037;28;20031;-88
2023/07/13 06:35:51;;;;;;;4.82;1.33;;;22.20;87.40;;;;;;4968435;28;20029;-88
2023/07/13 06:38:17;;;;;;;2.58;1.08;;;22.20;89.30;;;;;;4947264;29;20031;-88
2023/07/13 06:40:50;;;;;;;2.28;1.10;;;22.20;88.30;;;;;;4940045;29;20039;-88
2023/07/13 06:43:16;;;;;;;2.08;1.15;;;22.00;86.90;;;;;;4953267;28;20084;-89
2023/07/13 06:45:49;;;;;;;1.88;1.30;;;21.90;86.90;;;;;;4937274;28;20027;-88
2023/07/13 06:48:19;;;;;;;2.05;1.00;;;21.80;87.10;;;;;;4958716;28;20031;-88
2023/07/13 06:50:46;;;;;;;3.83;1.05;;;21.70;87.50;;;;;;4963274;28;20031;-88
2023/07/13 06:53:12;;;;;;;1.63;1.00;;;21.70;88.00;;;;;;4959058;28;20031;-88
2023/07/13 06:55:39;;;;;;;2.55;1.20;;;22.00;87.90;;;;;;4953886;29;20394;-89
2023/07/13 06:58:05;;;;;;;2.03;1.00;;;22.50;86.00;;;;;;4960492;28;20034;-88
2023/07/13 07:01:35;;;;;;;1.40;0.85;;;23.20;83.30;;;;;;4953500;28;20031;-89
2023/07/13 07:04:05;;;;;;;2.97;1.30;;;24.00;80.90;;;;;;4888533;29;20040;-88
2023/07/13 07:09:20;;;;;;;2.47;0.80;;;24.20;76.80;;;;;;4963126;28;20051;-78
2023/07/13 07:11:46;;;;;;;2.42;1.10;;;23.90;74.90;;;;;;4962679;28;20073;-78
2023/07/13 07:14:11;;;;;;;1.55;0.80;;;23.60;75.30;;;;;;4954658;28;20051;-78
2023/07/13 07:16:37;;;;;;;2.67;1.20;;;23.30;75.70;;;;;;4961636;28;20521;-80
2023/07/13 07:19:03;;;;;;;3.50;0.90;;;23.00;77.60;;;;;;4954173;28;20043;-77
2023/07/13 07:21:29;;;;;;;0.60;0.60;;;22.90;78.40;;;;;;4961426;28;20513;-78
2023/07/13 07:23:54;;;;;;;1.58;0.90;;;23.00;77.30;;;;;;4960052;28;20101;-78
2023/07/13 07:26:20;;;;;;;2.00;0.88;;;23.10;77.20;;;;;;4965461;28;20034;-79
2023/07/13 07:28:46;;;;;;;2.10;1.17;;;23.20;77.00;;;;;;4959004;28;20046;-78
2023/07/13 07:31:12;;;;;;;2.30;1.10;;;23.10;76.30;;;;;;4951624;28;20090;-78
2023/07/13 07:33:37;;;;;;;2.33;0.90;;;23.00;76.90;;;;;;4953230;28;20030;-78
2023/07/13 07:36:04;;;;;;;2.83;1.10;;;23.00;77.90;;;;;;4953160;28;20533;-79
2023/07/13 07:38:29;;;;;;;2.15;1.27;;;23.20;75.90;;;;;;4951131;28;20031;-79
2023/07/13 07:40:55;;;;;;;2.45;1.02;;;23.30;75.90;;;;;;4952703;28;20031;-78
2023/07/13 07:43:21;;;;;;;3.47;1.50;;;23.30;75.80;;;;;;4952132;28;20166;-79
2023/07/13 07:45:47;;;;;;;4.97;2.78;;;23.60;74.60;;;;;;4957104;28;20151;-80
2023/07/13 07:48:13;;;;;;;2.97;0.73;;;23.90;74.00;;;;;;4953065;28;20038;-79
2023/07/13 07:50:39;;;;;;;4.20;1.40;;;24.00;72.70;;;;;;4952651;28;20107;-79
2023/07/13 07:53:07;;;;;;;3.17;0.80;;;24.00;72.90;;;;;;4952609;28;20061;-79
2023/07/13 07:55:37;;;;;;;2.55;1.25;;;23.90;70.00;;;;;;4958899;28;20082;-79
2023/07/13 07:58:03;;;;;;;2.60;0.90;;;23.80;73.80;;;;;;4961938;28;20054;-79
2023/07/13 08:00:32;;;;;;;1.75;0.80;;;23.90;73.70;;;;;;4951712;28;20071;-78
2023/07/13 08:02:58;;;;;;;2.78;0.88;;;24.00;69.90;;;;;;4952548;28;20118;-78
2023/07/13 08:05:25;;;;;;;2.75;1.17;;;24.00;70.40;;;;;;4952307;28;20031;-80
2023/07/13 08:07:50;;;;;;;3.05;0.90;;;24.00;72.80;;;;;;4958237;28;20054;-80
2023/07/13 08:10:16;;;;;;;3.42;0.90;;;24.10;70.80;;;;;;4959070;28;20849;-79
2023/07/13 08:12:42;;;;;;;1.90;0.80;;;24.10;73.90;;;;;;4960322;28;20031;-79
2023/07/13 08:15:13;;;;;;;1.73;0.82;;;24.30;70.80;;;;;;4958812;28;20105;-80
2023/07/13 08:17:39;;;;;;;1.83;0.80;;;24.20;67.50;;;;;;4960385;28;20113;-79
2023/07/13 08:20:05;;;;;;;2.67;0.85;;;24.00;70.40;;;;;;4960132;28;20035;-79
2023/07/13 08:22:31;;;;;;;7.93;1.13;;;23.80;73.00;;;;;;4964788;28;20552;-79
2023/07/13 08:24:56;;;;;;;3.97;1.08;;;23.80;73.30;;;;;;4965380;28;20058;-79
2023/07/13 08:27:24;;;;;;;4.00;1.15;;;24.00;73.00;;;;;;4967712;28;20073;-79
2023/07/13 08:29:50;;;;;;;2.40;0.77;;;24.40;69.70;;;;;;4967605;28;20039;-81
2023/07/13 08:32:17;;;;;;;5.60;1.08;;;24.60;70.80;;;;;;4969942;28;20519;-80
2023/07/13 08:34:44;;;;;;;5.18;1.08;;;24.70;68.70;;;;;;4962655;28;20027;-80
2023/07/13 08:37:10;;;;;;;2.33;1.00;;;24.90;70.60;;;;;;4962145;28;20040;-80
2023/07/13 08:39:36;;;;;;;3.05;1.00;;;25.20;66.50;;;;;;4955764;28;20538;-80
2023/07/13 08:42:18;;;;;;;3.45;0.88;;;25.60;66.90;;;;;;4958326;28;20036;-81
2023/07/13 08:45:22;;;;;;;3.70;0.90;;;25.70;64.50;;;;;;4953560;28;20023;-80
2023/07/13 08:48:09;;;;;;;1.80;0.90;;;25.80;65.40;;;;;;4954923;28;20078;-79
2023/07/13 08:51:09;;;;;;;1.85;0.90;;;25.90;62.60;;;;;;4957851;28;20034;-79
2023/07/13 08:53:46;;;;;;;3.15;0.98;;;25.80;62.70;;;;;;4943250;28;20047;-80
2023/07/13 08:56:24;;;;;;;1.70;0.93;;;25.80;64.10;;;;;;4961923;28;20051;-80
2023/07/13 08:58:56;;;;;;;3.03;1.10;;;25.90;64.10;;;;;;4961952;28;20035;-81
2023/07/13 09:01:43;;;;;;;2.50;1.02;;;26.00;64.80;;;;;;4954515;28;20470;-80
2023/07/13 09:04:26;;;;;;;1.92;1.00;;;26.00;63.30;;;;;;4955664;28;20043;-79
2023/07/13 09:07:07;;;;;;;2.30;0.95;;;26.10;60.30;;;;;;4951461;28;20030;-80
2023/07/13 09:09:54;;;;;;;1.42;0.80;;;26.10;62.60;;;;;;4954644;28;20673;-81
2023/07/13 09:12:26;;;;;;;2.53;0.95;;;26.10;58.60;;;;;;4971337;28;20023;-78
2023/07/13 09:14:57;;;;;;;1.25;0.90;;;26.00;59.50;;;;;;4953181;29;20114;-80
2023/07/13 09:17:35;;;;;;;1.52;0.70;;;26.10;63.10;;;;;;4958733;28;20480;-79
2023/07/13 09:20:22;;;;;;;1.95;0.90;;;26.20;62.10;;;;;;4960037;28;20039;-79
2023/07/13 09:22:48;;;;;;;4.30;0.90;;;26.20;61.30;;;;;;4972516;28;20054;-80
2023/07/13 09:25:20;;;;;;;2.40;1.58;;;26.20;56.80;;;;;;4963902;28;20046;-79
2023/07/13 09:27:47;;;;;;;3.03;1.10;;;26.30;56.40;;;;;;4967544;28;20034;-79
2023/07/13 09:30:16;;;;;;;3.33;1.40;;;26.20;55.80;;;;;;4957419;28;20035;-80
2023/07/13 09:32:48;;;;;;;3.40;0.85;;;26.10;59.80;;;;;;4956377;28;20490;-79
2023/07/13 09:35:18;;;;;;;2.30;1.10;;;26.00;59.20;;;;;;4940355;28;20038;-80
2023/07/13 09:37:45;;;;;;;1.40;0.70;;;26.00;55.20;;;;;;4957898;28;20020;-80
2023/07/13 09:40:25;;;;;;;1.42;0.50;;;25.80;55.50;;;;;;4960513;28;20540;-80
2023/07/13 09:42:56;;;;;;;1.55;0.50;;;25.80;54.80;;;;;;4951091;28;20033;-81
2023/07/13 09:45:31;;;;;;;2.22;0.60;;;25.60;54.20;;;;;;4958311;28;20035;-79
2023/07/13 09:48:04;;;;;;;0.60;0.50;;;25.50;55.80;;;;;;4948666;28;20498;-78
2023/07/13 09:50:30;;;;;;;2.40;0.85;;;25.50;55.40;;;;;;4954701;28;20280;-82
2023/07/13 09:52:58;;;;;;;1.17;0.40;;;25.40;56.50;;;;;;4950352;28;20027;-82
2023/07/13 09:55:36;;;;;;;1.52;0.40;;;25.30;54.00;;;;;;4953441;28;20023;-80
2023/07/13 09:58:15;;;;;;;0.65;0.50;;;25.30;52.10;;;;;;4954970;28;20148;-80
2023/07/13 10:00:44;;;;;;;0.55;0.55;;;25.10;54.10;;;;;;4955547;28;20054;-80
2023/07/13 10:03:21;;;;;;;0.57;0.47;;;25.00;54.60;;;;;;4955616;28;20039;-81
2023/07/13 10:05:50;;;;;;;3.78;0.75;;;24.90;55.20;;;;;;4944686;28;20027;-78
2023/07/13 10:08:19;;;;;;;0.50;0.40;;;24.90;54.90;;;;;;4956888;28;20055;-81
2023/07/13 10:10:45;;;;;;;2.15;0.40;;;24.90;54.80;;;;;;4957834;28;20018;-81
2023/07/13 10:13:28;;;;;;;3.25;0.60;;;25.00;53.60;;;;;;4952985;28;20551;-81
2023/07/13 10:15:56;;;;;;;1.73;0.73;;;24.90;53.50;;;;;;4952153;28;20027;-80
2023/07/13 10:18:24;;;;;;;2.60;0.68;;;25.00;55.10;;;;;;4957675;28;20027;-80
2023/07/13 10:21:13;;;;;;;1.48;0.52;;;25.00;55.00;;;;;;4961423;28;20035;-79
2023/07/13 10:23:39;;;;;;;0.82;0.80;;;25.10;52.00;;;;;;4944247;28;20382;-80
2023/07/13 10:26:17;;;;;;;0.50;0.50;;;25.20;52.90;;;;;;4949834;28;20130;-81
2023/07/13 10:28:47;;;;;;;1.23;0.70;;;25.30;53.80;;;;;;4950061;28;20089;-81
2023/07/13 10:31:15;;;;;;;3.33;0.70;;;25.40;54.40;;;;;;4964337;28;20058;-82
2023/07/13 10:33:41;;;;;;;0.85;0.50;;;25.40;53.40;;;;;;4951867;28;20035;-79
2023/07/13 10:36:13;;;;;;;2.03;0.60;;;25.50;53.40;;;;;;4961755;28;20038;-79
2023/07/13 10:38:40;;;;;;;1.02;0.60;;;25.40;53.30;;;;;;4960600;28;20035;-82
2023/07/13 10:41:11;;;;;;;1.13;0.50;;;25.40;50.70;;;;;;4960435;28;20500;-79
2023/07/13 10:43:44;;;;;;;1.38;0.50;;;25.50;51.70;;;;;;4960584;28;20035;-79
2023/07/13 10:46:16;;;;;;;1.00;0.60;;;25.40;52.10;;;;;;4958999;28;20054;-79
2023/07/13 10:48:44;;;;;;;3.17;0.50;;;25.30;53.30;;;;;;4944709;29;20125;-80
2023/07/13 10:51:13;;;;;;;2.13;0.60;;;25.30;51.80;;;;;;4956200;28;20049;-80
2023/07/13 10:53:39;;;;;;;0.50;0.50;;;25.30;52.60;;;;;;4949911;28;20035;-80
2023/07/13 10:56:20;;;;;;;1.77;0.40;;;25.30;51.30;;;;;;4952855;28;20560;-80
2023/07/13 10:58:46;;;;;;;1.42;0.50;;;25.30;52.40;;;;;;4943006;29;20478;-80
2023/07/13 11:01:17;;;;;;;1.27;0.60;;;25.40;51.90;;;;;;4952728;28;20035;-81
2023/07/13 11:03:50;;;;;;;1.00;0.65;;;25.40;50.80;;;;;;4953077;28;20047;-78
2023/07/13 11:06:18;;;;;;;1.45;0.63;;;25.50;52.40;;;;;;4963082;28;20030;-78
2023/07/13 11:08:46;;;;;;;2.25;0.60;;;25.40;50.10;;;;;;4960187;28;20066;-78
2023/07/13 11:11:31;;;;;;;1.67;0.40;;;25.60;51.80;;;;;;4966892;28;20390;-78
2023/07/13 11:14:04;;;;;;;1.75;0.50;;;25.70;51.30;;;;;;4965185;28;20074;-79
2023/07/13 11:16:45;;;;;;;1.63;0.40;;;25.80;50.80;;;;;;4963169;28;20026;-79
2023/07/13 11:19:10;;;;;;;1.08;0.38;;;25.70;50.70;;;;;;4954121;28;20028;-80
2023/07/13 11:22:05;;;;;;;3.42;0.43;;;25.60;49.10;;;;;;4954005;28;20106;-80
2023/07/13 11:24:53;;;;;;;0.73;0.40;;;25.60;50.40;;;;;;4952675;28;20031;-80
2023/07/13 11:27:52;;;;;;;1.08;0.43;;;25.70;50.90;;;;;;4953417;28;20098;-77
2023/07/13 11:30:32;;;;;;;1.40;0.40;;;25.70;50.90;;;;;;4942850;28;20054;-80
2023/07/13 11:33:12;;;;;;;0.63;0.50;;;25.80;52.00;;;;;;4966970;28;20034;-79
2023/07/13 11:35:48;;;;;;;1.02;0.50;;;25.70;51.90;;;;;;4955186;28;20058;-78
2023/07/13 11:38:31;;;;;;;3.72;0.80;;;25.80;50.70;;;;;;4952541;28;20251;-80
2023/07/13 11:41:03;;;;;;;1.13;0.35;;;25.80;52.40;;;;;;4953591;28;20118;-79
2023/07/13 11:43:29;;;;;;;3.92;0.38;;;25.80;51.40;;;;;;4957109;28;20031;-79
2023/07/13 11:45:55;;;;;;;2.97;0.60;;;25.80;53.10;;;;;;4958770;28;20143;-78
2023/07/13 11:48:28;;;;;;;2.10;0.80;;;25.90;53.50;;;;;;4958206;28;20071;-79
2023/07/13 11:50:59;;;;;;;0.55;0.50;;;25.90;50.20;;;;;;4959243;28;20525;-79
2023/07/13 11:53:28;;;;;;;1.88;0.60;;;25.70;50.40;;;;;;4957195;28;20032;-80
2023/07/13 11:55:56;;;;;;;3.38;0.52;;;25.60;50.60;;;;;;4962234;28;20035;-80
2023/07/13 11:58:25;;;;;;;1.05;0.47;;;25.60;52.70;;;;;;4967539;28;20440;-79
2023/07/13 12:00:52;;;;;;;1.52;0.60;;;25.60;51.50;;;;;;4965684;28;20053;-79
2023/07/13 12:03:24;;;;;;;2.35;0.93;;;25.80;52.80;;;;;;4957287;28;20035;-78
2023/07/13 12:06:00;;;;;;;1.70;0.45;;;25.90;52.20;;;;;;4956422;28;20043;-79
2023/07/13 12:08:27;;;;;;;1.25;0.40;;;25.90;53.00;;;;;;4968757;28;20046;-77
2023/07/13 12:11:13;;;;;;;1.55;0.40;;;25.80;52.80;;;;;;4956447;28;20031;-79
2023/07/13 12:13:39;;;;;;;;;;;26.00;52.50;;;;;;4951229;28;20031;-78
2023/07/13 12:16:17;;;;;;;1.50;0.50;;;26.10;50.00;;;;;;4957328;28;19961;-78
2023/07/13 12:18:47;;;;;;;1.60;0.70;;;26.20;50.90;;;;;;4953537;28;20517;-79
2023/07/13 12:21:17;;;;;;;1.27;0.50;;;26.40;51.80;;;;;;4950666;28;20034;-79
2023/07/13 12:23:44;;;;;;;0.68;0.50;;;26.60;51.20;;;;;;4952652;28;20066;-79
2023/07/13 12:26:11;;;;;;;1.05;0.50;;;26.90;50.60;;;;;;4951497;28;20125;-80
2023/07/13 12:28:56;;;;;;;1.35;0.70;;;27.00;51.90;;;;;;4952265;28;20031;-80
2023/07/13 12:31:26;;;;;;;0.82;0.52;;;27.20;50.50;;;;;;4953353;28;20027;-80
2023/07/13 12:34:00;;;;;;;1.05;0.40;;;27.20;47.80;;;;;;4953350;28;20102;-80
2023/07/13 12:36:26;;;;;;;1.13;0.70;;;27.40;48.00;;;;;;4954673;28;20027;-79
2023/07/13 12:38:52;;;;;;;0.52;0.47;;;27.60;49.50;;;;;;4951396;28;20385;-80
2023/07/13 12:41:19;;;;;;;0.85;0.50;;;27.70;47.80;;;;;;4953108;28;20035;-80
2023/07/13 12:43:45;;;;;;;1.92;0.70;;;27.80;48.30;;;;;;4956297;28;20042;-80
2023/07/13 12:46:20;;;;;;;1.33;0.82;;;27.90;47.00;;;;;;4956572;28;20035;-80
2023/07/13 12:48:50;;;;;;;2.15;0.55;;;27.80;47.60;;;;;;4949464;28;20350;-80
2023/07/13 12:51:17;;;;;;;2.92;0.77;;;27.70;46.80;;;;;;4954638;28;20035;-79
2023/07/13 12:53:49;;;;;;;2.33;0.60;;;27.40;46.20;;;;;;4954949;28;20045;-80
2023/07/13 12:56:22;;;;;;;2.90;0.80;;;27.20;47.10;;;;;;4947030;28;20106;-80
2023/07/13 12:58:54;;;;;;;6.38;0.73;;;26.90;48.00;;;;;;4957959;28;20229;-79
2023/07/13 13:01:22;;;;;;;1.55;0.70;;;26.70;49.20;;;;;;4951746;28;20070;-78